sensor_id;sensor_type;location;lat;lon;timestamp;P1;durP1;ratioP1;P2;durP2;ratioP2
42294;SDS011;27947;47.556;18.718;2023-11-19T00:01:25;8.73;;;5.53;;
42294;SDS011;27947;47.556;18.718;2023-11-19T00:03:50;8.55;;;5.45;;
42294;SDS011;27947;47.556;18.718;2023-11-19T00:06:16;10.02;;;5.78;;
42294;SDS011;27947;47.556;18.718;2023-11-19T00:08:42;12.02;;;6.93;;
42294;SDS011;27947;47.556;18.718;2023-11-19T00:11:08;12.05;;;6.88;;
42294;SDS011;27947;47.556;18.718;2023-11-19T00:13:34;9.88;;;6.53;;
42294;SDS011;27947;47.556;18.718;2023-11-19T00:15:59;9.93;;;6.35;;
42294;SDS011;27947;47.556;18.718;2023-11-19T00:18:25;9.63;;;6.22;;
42294;SDS011;27947;47.556;18.718;2023-11-19T00:20:50;9.95;;;5.65;;
42294;SDS011;27947;47.556;18.718;2023-11-19T00:23:15;8.27;;;5.78;;
42294;SDS011;27947;47.556;18.718;2023-11-19T00:25:41;9.68;;;5.50;;
42294;SDS011;27947;47.556;18.718;2023-11-19T00:28:06;9.38;;;5.95;;
42294;SDS011;27947;47.556;18.718;2023-11-19T00:30:32;9.48;;;5.60;;
42294;SDS011;27947;47.556;18.718;2023-11-19T00:32:57;8.68;;;5.05;;
42294;SDS011;27947;47.556;18.718;2023-11-19T00:35:22;9.55;;;5.97;;
42294;SDS011;27947;47.556;18.718;2023-11-19T00:37:48;8.80;;;5.85;;
42294;SDS011;27947;47.556;18.718;2023-11-19T00:40:14;8.10;;;5.20;;
42294;SDS011;27947;47.556;18.718;2023-11-19T00:42:42;12.05;;;6.40;;
42294;SDS011;27947;47.556;18.718;2023-11-19T00:45:08;8.77;;;6.07;;
42294;SDS011;27947;47.556;18.718;2023-11-19T00:47:35;9.45;;;6.20;;
42294;SDS011;27947;47.556;18.718;2023-11-19T00:50:03;9.95;;;6.75;;
42294;SDS011;27947;47.556;18.718;2023-11-19T00:52:29;9.38;;;6.03;;
42294;SDS011;27947;47.556;18.718;2023-11-19T00:54:55;8.98;;;6.35;;
42294;SDS011;27947;47.556;18.718;2023-11-19T00:57:21;9.38;;;6.32;;
42294;SDS011;27947;47.556;18.718;2023-11-19T00:59:48;9.63;;;6.47;;
42294;SDS011;27947;47.556;18.718;2023-11-19T01:02:13;9.65;;;6.38;;
42294;SDS011;27947;47.556;18.718;2023-11-19T01:04:39;11.00;;;6.45;;
42294;SDS011;27947;47.556;18.718;2023-11-19T01:07:05;9.82;;;5.93;;
42294;SDS011;27947;47.556;18.718;2023-11-19T01:09:31;10.27;;;6.32;;
42294;SDS011;27947;47.556;18.718;2023-11-19T01:12:04;10.60;;;5.68;;
42294;SDS011;27947;47.556;18.718;2023-11-19T01:14:29;10.25;;;6.22;;
42294;SDS011;27947;47.556;18.718;2023-11-19T01:16:55;8.93;;;5.88;;
42294;SDS011;27947;47.556;18.718;2023-11-19T01:19:21;10.95;;;6.68;;
42294;SDS011;27947;47.556;18.718;2023-11-19T01:21:47;9.10;;;6.13;;
42294;SDS011;27947;47.556;18.718;2023-11-19T01:24:12;11.80;;;6.88;;
42294;SDS011;27947;47.556;18.718;2023-11-19T01:26:39;13.95;;;7.85;;
42294;SDS011;27947;47.556;18.718;2023-11-19T01:29:10;14.43;;;7.53;;
42294;SDS011;27947;47.556;18.718;2023-11-19T01:31:36;12.95;;;7.22;;
42294;SDS011;27947;47.556;18.718;2023-11-19T01:34:02;12.93;;;7.30;;
42294;SDS011;27947;47.556;18.718;2023-11-19T01:36:27;11.43;;;7.03;;
42294;SDS011;27947;47.556;18.718;2023-11-19T01:38:53;11.18;;;6.88;;
42294;SDS011;27947;47.556;18.718;2023-11-19T01:41:18;12.05;;;7.40;;
42294;SDS011;27947;47.556;18.718;2023-11-19T01:43:44;11.82;;;7.57;;
42294;SDS011;27947;47.556;18.718;2023-11-19T01:46:12;14.07;;;8.32;;
42294;SDS011;27947;47.556;18.718;2023-11-19T01:48:42;13.45;;;7.78;;
42294;SDS011;27947;47.556;18.718;2023-11-19T01:51:08;11.38;;;6.88;;
42294;SDS011;27947;47.556;18.718;2023-11-19T01:53:34;10.88;;;7.43;;
42294;SDS011;27947;47.556;18.718;2023-11-19T01:56:00;13.82;;;7.50;;
42294;SDS011;27947;47.556;18.718;2023-11-19T01:58:25;10.52;;;6.95;;
42294;SDS011;27947;47.556;18.718;2023-11-19T02:00:51;11.68;;;7.40;;
42294;SDS011;27947;47.556;18.718;2023-11-19T02:03:17;11.70;;;6.80;;
42294;SDS011;27947;47.556;18.718;2023-11-19T02:05:42;13.90;;;7.25;;
42294;SDS011;27947;47.556;18.718;2023-11-19T02:08:08;12.82;;;7.60;;
42294;SDS011;27947;47.556;18.718;2023-11-19T02:10:33;10.60;;;7.15;;
42294;SDS011;27947;47.556;18.718;2023-11-19T02:12:59;10.98;;;7.07;;
42294;SDS011;27947;47.556;18.718;2023-11-19T02:15:25;12.38;;;7.45;;
42294;SDS011;27947;47.556;18.718;2023-11-19T02:17:51;11.45;;;6.80;;
42294;SDS011;27947;47.556;18.718;2023-11-19T02:20:16;11.40;;;7.28;;
42294;SDS011;27947;47.556;18.718;2023-11-19T02:22:45;11.73;;;7.45;;
42294;SDS011;27947;47.556;18.718;2023-11-19T02:25:19;12.90;;;7.60;;
42294;SDS011;27947;47.556;18.718;2023-11-19T02:27:59;10.18;;;6.90;;
42294;SDS011;27947;47.556;18.718;2023-11-19T02:30:24;12.27;;;7.45;;
42294;SDS011;27947;47.556;18.718;2023-11-19T02:32:54;10.25;;;6.45;;
42294;SDS011;27947;47.556;18.718;2023-11-19T02:35:22;10.95;;;6.50;;
42294;SDS011;27947;47.556;18.718;2023-11-19T02:37:47;10.88;;;6.50;;
42294;SDS011;27947;47.556;18.718;2023-11-19T02:40:13;12.00;;;7.55;;
42294;SDS011;27947;47.556;18.718;2023-11-19T02:42:38;9.00;;;6.20;;
42294;SDS011;27947;47.556;18.718;2023-11-19T02:45:04;10.57;;;6.53;;
42294;SDS011;27947;47.556;18.718;2023-11-19T02:47:31;11.07;;;6.80;;
42294;SDS011;27947;47.556;18.718;2023-11-19T02:49:56;10.98;;;6.50;;
42294;SDS011;27947;47.556;18.718;2023-11-19T02:52:22;12.77;;;7.45;;
42294;SDS011;27947;47.556;18.718;2023-11-19T02:54:48;14.38;;;6.82;;
42294;SDS011;27947;47.556;18.718;2023-11-19T02:57:13;9.55;;;6.60;;
42294;SDS011;27947;47.556;18.718;2023-11-19T02:59:39;12.85;;;7.13;;
42294;SDS011;27947;47.556;18.718;2023-11-19T03:02:07;12.82;;;7.43;;
42294;SDS011;27947;47.556;18.718;2023-11-19T03:04:37;12.43;;;7.63;;
42294;SDS011;27947;47.556;18.718;2023-11-19T03:07:05;12.85;;;7.97;;
42294;SDS011;27947;47.556;18.718;2023-11-19T03:09:30;12.18;;;6.97;;
42294;SDS011;27947;47.556;18.718;2023-11-19T03:11:56;13.13;;;7.80;;
42294;SDS011;27947;47.556;18.718;2023-11-19T03:14:21;13.10;;;7.53;;
42294;SDS011;27947;47.556;18.718;2023-11-19T03:16:48;15.32;;;8.23;;
42294;SDS011;27947;47.556;18.718;2023-11-19T03:19:13;15.52;;;8.50;;
42294;SDS011;27947;47.556;18.718;2023-11-19T03:21:40;17.70;;;9.10;;
42294;SDS011;27947;47.556;18.718;2023-11-19T03:24:05;13.98;;;7.85;;
42294;SDS011;27947;47.556;18.718;2023-11-19T03:26:32;17.08;;;8.15;;
42294;SDS011;27947;47.556;18.718;2023-11-19T03:28:58;13.15;;;8.25;;
42294;SDS011;27947;47.556;18.718;2023-11-19T03:31:24;14.32;;;8.02;;
42294;SDS011;27947;47.556;18.718;2023-11-19T03:33:50;14.82;;;8.32;;
42294;SDS011;27947;47.556;18.718;2023-11-19T03:36:16;16.05;;;8.05;;
42294;SDS011;27947;47.556;18.718;2023-11-19T03:38:41;15.70;;;8.73;;
42294;SDS011;27947;47.556;18.718;2023-11-19T03:41:13;19.35;;;10.52;;
42294;SDS011;27947;47.556;18.718;2023-11-19T03:43:39;19.58;;;10.70;;
42294;SDS011;27947;47.556;18.718;2023-11-19T03:46:05;14.80;;;8.85;;
42294;SDS011;27947;47.556;18.718;2023-11-19T03:48:40;15.75;;;9.00;;
42294;SDS011;27947;47.556;18.718;2023-11-19T03:51:05;14.90;;;8.30;;
42294;SDS011;27947;47.556;18.718;2023-11-19T03:53:30;14.63;;;8.82;;
42294;SDS011;27947;47.556;18.718;2023-11-19T03:55:56;13.07;;;7.65;;
42294;SDS011;27947;47.556;18.718;2023-11-19T03:58:21;15.30;;;8.75;;
42294;SDS011;27947;47.556;18.718;2023-11-19T04:00:46;17.05;;;9.07;;
42294;SDS011;27947;47.556;18.718;2023-11-19T04:03:12;13.63;;;7.90;;
42294;SDS011;27947;47.556;18.718;2023-11-19T04:05:38;14.85;;;8.30;;
42294;SDS011;27947;47.556;18.718;2023-11-19T04:08:03;15.98;;;8.70;;
42294;SDS011;27947;47.556;18.718;2023-11-19T04:10:29;17.92;;;8.57;;
42294;SDS011;27947;47.556;18.718;2023-11-19T04:12:55;13.18;;;7.75;;
42294;SDS011;27947;47.556;18.718;2023-11-19T04:15:21;11.98;;;7.47;;
42294;SDS011;27947;47.556;18.718;2023-11-19T04:17:47;14.18;;;7.85;;
42294;SDS011;27947;47.556;18.718;2023-11-19T04:20:12;14.55;;;8.10;;
42294;SDS011;27947;47.556;18.718;2023-11-19T04:22:38;12.40;;;7.57;;
42294;SDS011;27947;47.556;18.718;2023-11-19T04:25:04;12.95;;;7.68;;
42294;SDS011;27947;47.556;18.718;2023-11-19T04:27:29;12.77;;;7.40;;
42294;SDS011;27947;47.556;18.718;2023-11-19T04:29:55;14.45;;;7.47;;
42294;SDS011;27947;47.556;18.718;2023-11-19T04:32:20;12.65;;;7.40;;
42294;SDS011;27947;47.556;18.718;2023-11-19T04:34:48;12.25;;;7.43;;
42294;SDS011;27947;47.556;18.718;2023-11-19T04:37:13;14.68;;;9.02;;
42294;SDS011;27947;47.556;18.718;2023-11-19T04:39:39;12.73;;;7.28;;
42294;SDS011;27947;47.556;18.718;2023-11-19T04:42:04;12.38;;;7.70;;
42294;SDS011;27947;47.556;18.718;2023-11-19T04:44:31;11.50;;;7.25;;
42294;SDS011;27947;47.556;18.718;2023-11-19T04:46:56;14.98;;;8.15;;
42294;SDS011;27947;47.556;18.718;2023-11-19T04:49:22;13.65;;;7.45;;
42294;SDS011;27947;47.556;18.718;2023-11-19T04:51:47;13.48;;;7.95;;
42294;SDS011;27947;47.556;18.718;2023-11-19T04:54:13;13.80;;;8.27;;
42294;SDS011;27947;47.556;18.718;2023-11-19T04:56:39;14.88;;;8.27;;
42294;SDS011;27947;47.556;18.718;2023-11-19T04:59:05;13.20;;;7.65;;
42294;SDS011;27947;47.556;18.718;2023-11-19T05:01:34;13.60;;;8.23;;
42294;SDS011;27947;47.556;18.718;2023-11-19T05:03:59;13.43;;;7.75;;
42294;SDS011;27947;47.556;18.718;2023-11-19T05:06:28;14.32;;;8.32;;
42294;SDS011;27947;47.556;18.718;2023-11-19T05:08:54;12.00;;;7.50;;
42294;SDS011;27947;47.556;18.718;2023-11-19T05:11:20;13.82;;;7.82;;
42294;SDS011;27947;47.556;18.718;2023-11-19T05:13:45;13.65;;;8.27;;
42294;SDS011;27947;47.556;18.718;2023-11-19T05:16:11;14.63;;;8.32;;
42294;SDS011;27947;47.556;18.718;2023-11-19T05:18:39;13.45;;;7.93;;
42294;SDS011;27947;47.556;18.718;2023-11-19T05:21:05;13.43;;;8.23;;
42294;SDS011;27947;47.556;18.718;2023-11-19T05:23:30;13.95;;;7.72;;
42294;SDS011;27947;47.556;18.718;2023-11-19T05:25:55;16.10;;;8.30;;
42294;SDS011;27947;47.556;18.718;2023-11-19T05:28:21;13.70;;;9.38;;
42294;SDS011;27947;47.556;18.718;2023-11-19T05:30:49;14.38;;;8.25;;
42294;SDS011;27947;47.556;18.718;2023-11-19T05:33:15;13.98;;;8.23;;
42294;SDS011;27947;47.556;18.718;2023-11-19T05:35:40;14.38;;;8.63;;
42294;SDS011;27947;47.556;18.718;2023-11-19T05:38:06;14.60;;;8.50;;
42294;SDS011;27947;47.556;18.718;2023-11-19T05:40:31;14.10;;;8.38;;
42294;SDS011;27947;47.556;18.718;2023-11-19T05:42:56;14.05;;;8.32;;
42294;SDS011;27947;47.556;18.718;2023-11-19T05:45:22;13.35;;;8.63;;
42294;SDS011;27947;47.556;18.718;2023-11-19T05:47:47;17.77;;;9.80;;
42294;SDS011;27947;47.556;18.718;2023-11-19T05:50:12;18.35;;;9.40;;
42294;SDS011;27947;47.556;18.718;2023-11-19T05:52:38;16.95;;;8.75;;
42294;SDS011;27947;47.556;18.718;2023-11-19T05:55:04;15.30;;;8.65;;
42294;SDS011;27947;47.556;18.718;2023-11-19T05:57:34;14.57;;;8.15;;
42294;SDS011;27947;47.556;18.718;2023-11-19T05:59:59;14.48;;;8.00;;
42294;SDS011;27947;47.556;18.718;2023-11-19T06:02:25;19.80;;;11.05;;
42294;SDS011;27947;47.556;18.718;2023-11-19T06:04:52;24.63;;;12.90;;
42294;SDS011;27947;47.556;18.718;2023-11-19T06:07:18;28.27;;;13.90;;
42294;SDS011;27947;47.556;18.718;2023-11-19T06:09:43;24.83;;;12.23;;
42294;SDS011;27947;47.556;18.718;2023-11-19T06:12:09;23.98;;;11.55;;
42294;SDS011;27947;47.556;18.718;2023-11-19T06:14:34;30.77;;;11.15;;
42294;SDS011;27947;47.556;18.718;2023-11-19T06:16:59;33.30;;;11.90;;
42294;SDS011;27947;47.556;18.718;2023-11-19T06:19:25;39.60;;;13.65;;
42294;SDS011;27947;47.556;18.718;2023-11-19T06:21:50;34.80;;;13.27;;
42294;SDS011;27947;47.556;18.718;2023-11-19T06:24:16;35.53;;;11.73;;
42294;SDS011;27947;47.556;18.718;2023-11-19T06:26:41;21.73;;;9.60;;
42294;SDS011;27947;47.556;18.718;2023-11-19T06:29:06;18.67;;;10.00;;
42294;SDS011;27947;47.556;18.718;2023-11-19T06:31:32;23.58;;;10.45;;
42294;SDS011;27947;47.556;18.718;2023-11-19T06:33:57;16.90;;;9.30;;
42294;SDS011;27947;47.556;18.718;2023-11-19T06:36:22;19.48;;;9.88;;
42294;SDS011;27947;47.556;18.718;2023-11-19T06:38:48;14.27;;;8.27;;
42294;SDS011;27947;47.556;18.718;2023-11-19T06:41:13;13.70;;;8.80;;
42294;SDS011;27947;47.556;18.718;2023-11-19T06:43:39;13.75;;;8.85;;
42294;SDS011;27947;47.556;18.718;2023-11-19T06:46:04;20.10;;;11.05;;
42294;SDS011;27947;47.556;18.718;2023-11-19T06:48:32;16.77;;;9.65;;
42294;SDS011;27947;47.556;18.718;2023-11-19T06:50:57;14.38;;;8.20;;
42294;SDS011;27947;47.556;18.718;2023-11-19T06:53:22;17.25;;;9.95;;
42294;SDS011;27947;47.556;18.718;2023-11-19T06:55:48;13.80;;;8.07;;
42294;SDS011;27947;47.556;18.718;2023-11-19T06:58:13;15.85;;;9.18;;
42294;SDS011;27947;47.556;18.718;2023-11-19T07:00:38;15.23;;;9.82;;
42294;SDS011;27947;47.556;18.718;2023-11-19T07:03:04;17.05;;;10.55;;
42294;SDS011;27947;47.556;18.718;2023-11-19T07:05:31;16.98;;;10.13;;
42294;SDS011;27947;47.556;18.718;2023-11-19T07:07:56;13.48;;;8.50;;
42294;SDS011;27947;47.556;18.718;2023-11-19T07:10:21;16.85;;;8.85;;
42294;SDS011;27947;47.556;18.718;2023-11-19T07:12:47;25.05;;;9.88;;
42294;SDS011;27947;47.556;18.718;2023-11-19T07:15:15;17.40;;;10.00;;
42294;SDS011;27947;47.556;18.718;2023-11-19T07:17:42;14.38;;;8.93;;
42294;SDS011;27947;47.556;18.718;2023-11-19T07:20:09;17.55;;;8.93;;
42294;SDS011;27947;47.556;18.718;2023-11-19T07:22:38;13.20;;;8.15;;
42294;SDS011;27947;47.556;18.718;2023-11-19T07:25:04;13.77;;;8.68;;
42294;SDS011;27947;47.556;18.718;2023-11-19T07:27:29;16.80;;;10.05;;
42294;SDS011;27947;47.556;18.718;2023-11-19T07:29:54;15.30;;;9.95;;
42294;SDS011;27947;47.556;18.718;2023-11-19T07:32:20;21.58;;;11.77;;
42294;SDS011;27947;47.556;18.718;2023-11-19T07:34:45;21.48;;;12.27;;
42294;SDS011;27947;47.556;18.718;2023-11-19T07:37:10;17.50;;;10.02;;
42294;SDS011;27947;47.556;18.718;2023-11-19T07:39:36;21.33;;;11.15;;
42294;SDS011;27947;47.556;18.718;2023-11-19T07:42:03;17.73;;;10.35;;
42294;SDS011;27947;47.556;18.718;2023-11-19T07:44:28;21.98;;;10.80;;
42294;SDS011;27947;47.556;18.718;2023-11-19T07:46:54;20.80;;;11.68;;
42294;SDS011;27947;47.556;18.718;2023-11-19T07:49:19;21.83;;;12.02;;
42294;SDS011;27947;47.556;18.718;2023-11-19T07:51:44;18.38;;;11.40;;
42294;SDS011;27947;47.556;18.718;2023-11-19T07:54:10;21.83;;;12.05;;
42294;SDS011;27947;47.556;18.718;2023-11-19T07:56:35;20.95;;;12.20;;
42294;SDS011;27947;47.556;18.718;2023-11-19T07:59:01;21.52;;;11.90;;
42294;SDS011;27947;47.556;18.718;2023-11-19T08:01:26;15.88;;;9.93;;
42294;SDS011;27947;47.556;18.718;2023-11-19T08:03:52;18.05;;;9.60;;
42294;SDS011;27947;47.556;18.718;2023-11-19T08:06:17;16.63;;;10.05;;
42294;SDS011;27947;47.556;18.718;2023-11-19T08:08:42;18.17;;;10.82;;
42294;SDS011;27947;47.556;18.718;2023-11-19T08:11:08;28.13;;;17.00;;
42294;SDS011;27947;47.556;18.718;2023-11-19T08:13:33;48.85;;;28.35;;
42294;SDS011;27947;47.556;18.718;2023-11-19T08:15:59;25.13;;;13.55;;
42294;SDS011;27947;47.556;18.718;2023-11-19T08:18:24;19.55;;;11.63;;
42294;SDS011;27947;47.556;18.718;2023-11-19T08:20:49;23.13;;;12.35;;
42294;SDS011;27947;47.556;18.718;2023-11-19T08:23:19;22.15;;;12.43;;
42294;SDS011;27947;47.556;18.718;2023-11-19T08:25:44;21.30;;;11.73;;
42294;SDS011;27947;47.556;18.718;2023-11-19T08:28:09;18.88;;;10.57;;
42294;SDS011;27947;47.556;18.718;2023-11-19T08:30:35;18.80;;;10.48;;
42294;SDS011;27947;47.556;18.718;2023-11-19T08:33:00;16.83;;;9.95;;
42294;SDS011;27947;47.556;18.718;2023-11-19T08:35:28;22.65;;;10.27;;
42294;SDS011;27947;47.556;18.718;2023-11-19T08:37:53;17.60;;;10.55;;
42294;SDS011;27947;47.556;18.718;2023-11-19T08:40:19;21.58;;;11.88;;
42294;SDS011;27947;47.556;18.718;2023-11-19T08:42:45;25.60;;;12.43;;
42294;SDS011;27947;47.556;18.718;2023-11-19T08:45:10;23.90;;;12.20;;
42294;SDS011;27947;47.556;18.718;2023-11-19T08:47:36;23.63;;;12.00;;
42294;SDS011;27947;47.556;18.718;2023-11-19T08:50:02;20.92;;;11.30;;
42294;SDS011;27947;47.556;18.718;2023-11-19T08:52:29;19.25;;;10.27;;
42294;SDS011;27947;47.556;18.718;2023-11-19T08:54:54;20.10;;;11.25;;
42294;SDS011;27947;47.556;18.718;2023-11-19T08:57:19;17.13;;;10.65;;
42294;SDS011;27947;47.556;18.718;2023-11-19T08:59:45;16.08;;;9.88;;
42294;SDS011;27947;47.556;18.718;2023-11-19T09:02:11;18.50;;;10.07;;
42294;SDS011;27947;47.556;18.718;2023-11-19T09:04:36;16.27;;;10.30;;
42294;SDS011;27947;47.556;18.718;2023-11-19T09:07:02;20.13;;;11.10;;
42294;SDS011;27947;47.556;18.718;2023-11-19T09:09:28;16.80;;;9.57;;
42294;SDS011;27947;47.556;18.718;2023-11-19T09:11:53;17.85;;;11.50;;
42294;SDS011;27947;47.556;18.718;2023-11-19T09:14:19;16.42;;;9.57;;
42294;SDS011;27947;47.556;18.718;2023-11-19T09:16:49;17.30;;;10.15;;
42294;SDS011;27947;47.556;18.718;2023-11-19T09:19:14;16.80;;;10.10;;
42294;SDS011;27947;47.556;18.718;2023-11-19T09:21:40;16.88;;;10.43;;
42294;SDS011;27947;47.556;18.718;2023-11-19T09:24:05;16.50;;;9.73;;
42294;SDS011;27947;47.556;18.718;2023-11-19T09:26:32;16.88;;;9.95;;
42294;SDS011;27947;47.556;18.718;2023-11-19T09:28:58;19.88;;;10.48;;
42294;SDS011;27947;47.556;18.718;2023-11-19T09:31:23;17.73;;;11.00;;
42294;SDS011;27947;47.556;18.718;2023-11-19T09:33:49;15.52;;;9.63;;
42294;SDS011;27947;47.556;18.718;2023-11-19T09:36:14;15.20;;;8.98;;
42294;SDS011;27947;47.556;18.718;2023-11-19T09:38:42;16.45;;;8.75;;
42294;SDS011;27947;47.556;18.718;2023-11-19T09:41:07;13.10;;;9.05;;
42294;SDS011;27947;47.556;18.718;2023-11-19T09:43:33;17.33;;;8.88;;
42294;SDS011;27947;47.556;18.718;2023-11-19T09:45:59;16.25;;;9.93;;
42294;SDS011;27947;47.556;18.718;2023-11-19T09:48:30;18.42;;;9.77;;
42294;SDS011;27947;47.556;18.718;2023-11-19T09:50:56;15.75;;;10.48;;
42294;SDS011;27947;47.556;18.718;2023-11-19T09:53:21;14.98;;;10.00;;
42294;SDS011;27947;47.556;18.718;2023-11-19T09:55:47;17.05;;;10.45;;
42294;SDS011;27947;47.556;18.718;2023-11-19T09:58:13;19.48;;;10.95;;
42294;SDS011;27947;47.556;18.718;2023-11-19T10:00:40;18.38;;;10.65;;
42294;SDS011;27947;47.556;18.718;2023-11-19T10:03:05;16.38;;;10.07;;
42294;SDS011;27947;47.556;18.718;2023-11-19T10:05:32;16.20;;;9.88;;
42294;SDS011;27947;47.556;18.718;2023-11-19T10:07:57;15.20;;;10.20;;
42294;SDS011;27947;47.556;18.718;2023-11-19T10:10:23;13.73;;;9.55;;
42294;SDS011;27947;47.556;18.718;2023-11-19T10:12:50;16.00;;;9.95;;
42294;SDS011;27947;47.556;18.718;2023-11-19T10:15:24;16.45;;;9.93;;
42294;SDS011;27947;47.556;18.718;2023-11-19T10:17:51;14.15;;;9.35;;
42294;SDS011;27947;47.556;18.718;2023-11-19T10:20:17;17.67;;;10.02;;
42294;SDS011;27947;47.556;18.718;2023-11-19T10:22:42;16.70;;;10.05;;
42294;SDS011;27947;47.556;18.718;2023-11-19T10:25:26;16.33;;;9.65;;
42294;SDS011;27947;47.556;18.718;2023-11-19T10:27:52;16.10;;;10.13;;
42294;SDS011;27947;47.556;18.718;2023-11-19T10:33:00;16.40;;;10.65;;
42294;SDS011;27947;47.556;18.718;2023-11-19T10:35:27;16.08;;;9.48;;
42294;SDS011;27947;47.556;18.718;2023-11-19T10:37:52;14.30;;;9.63;;
42294;SDS011;27947;47.556;18.718;2023-11-19T10:40:18;17.20;;;9.88;;
42294;SDS011;27947;47.556;18.718;2023-11-19T10:42:43;15.20;;;9.45;;
42294;SDS011;27947;47.556;18.718;2023-11-19T10:45:24;15.98;;;9.80;;
42294;SDS011;27947;47.556;18.718;2023-11-19T10:47:50;14.82;;;9.45;;
42294;SDS011;27947;47.556;18.718;2023-11-19T10:50:16;18.40;;;8.48;;
42294;SDS011;27947;47.556;18.718;2023-11-19T10:52:41;15.70;;;9.95;;
42294;SDS011;27947;47.556;18.718;2023-11-19T10:55:08;18.48;;;10.30;;
42294;SDS011;27947;47.556;18.718;2023-11-19T10:57:36;21.27;;;12.77;;
42294;SDS011;27947;47.556;18.718;2023-11-19T11:00:04;18.70;;;11.05;;
42294;SDS011;27947;47.556;18.718;2023-11-19T11:02:37;19.35;;;10.52;;
42294;SDS011;27947;47.556;18.718;2023-11-19T11:05:05;15.77;;;9.65;;
42294;SDS011;27947;47.556;18.718;2023-11-19T11:07:33;17.63;;;10.65;;
42294;SDS011;27947;47.556;18.718;2023-11-19T11:09:59;16.33;;;10.15;;
42294;SDS011;27947;47.556;18.718;2023-11-19T11:12:25;15.55;;;10.05;;
42294;SDS011;27947;47.556;18.718;2023-11-19T11:14:50;17.35;;;10.32;;
42294;SDS011;27947;47.556;18.718;2023-11-19T11:17:17;19.10;;;10.00;;
42294;SDS011;27947;47.556;18.718;2023-11-19T11:19:42;15.73;;;9.85;;
42294;SDS011;27947;47.556;18.718;2023-11-19T11:22:08;16.80;;;10.38;;
42294;SDS011;27947;47.556;18.718;2023-11-19T11:27:08;14.57;;;9.23;;
42294;SDS011;27947;47.556;18.718;2023-11-19T11:29:58;14.18;;;9.45;;
42294;SDS011;27947;47.556;18.718;2023-11-19T11:32:45;13.02;;;8.55;;
42294;SDS011;27947;47.556;18.718;2023-11-19T11:37:44;16.95;;;10.88;;
42294;SDS011;27947;47.556;18.718;2023-11-19T11:40:15;15.48;;;9.38;;
42294;SDS011;27947;47.556;18.718;2023-11-19T11:42:43;14.82;;;9.10;;
42294;SDS011;27947;47.556;18.718;2023-11-19T11:45:10;14.15;;;9.43;;
42294;SDS011;27947;47.556;18.718;2023-11-19T11:50:08;15.20;;;8.77;;
42294;SDS011;27947;47.556;18.718;2023-11-19T11:52:33;11.55;;;7.72;;
42294;SDS011;27947;47.556;18.718;2023-11-19T11:55:07;13.45;;;8.15;;
42294;SDS011;27947;47.556;18.718;2023-11-19T11:57:37;13.75;;;8.35;;
42294;SDS011;27947;47.556;18.718;2023-11-19T12:00:03;13.00;;;8.63;;
42294;SDS011;27947;47.556;18.718;2023-11-19T12:02:30;17.65;;;9.55;;
42294;SDS011;27947;47.556;18.718;2023-11-19T12:04:56;12.63;;;8.38;;
42294;SDS011;27947;47.556;18.718;2023-11-19T12:07:22;11.80;;;7.95;;
42294;SDS011;27947;47.556;18.718;2023-11-19T12:09:51;12.25;;;7.95;;
42294;SDS011;27947;47.556;18.718;2023-11-19T12:12:18;14.55;;;8.60;;
42294;SDS011;27947;47.556;18.718;2023-11-19T12:17:36;13.38;;;8.80;;
42294;SDS011;27947;47.556;18.718;2023-11-19T12:20:02;13.40;;;8.73;;
42294;SDS011;27947;47.556;18.718;2023-11-19T12:22:28;16.23;;;9.95;;
42294;SDS011;27947;47.556;18.718;2023-11-19T12:24:54;13.70;;;8.70;;
42294;SDS011;27947;47.556;18.718;2023-11-19T12:27:19;14.27;;;9.35;;
42294;SDS011;27947;47.556;18.718;2023-11-19T12:29:47;14.18;;;10.00;;
42294;SDS011;27947;47.556;18.718;2023-11-19T12:32:13;13.32;;;8.68;;
42294;SDS011;27947;47.556;18.718;2023-11-19T12:34:38;14.23;;;9.55;;
42294;SDS011;27947;47.556;18.718;2023-11-19T12:37:04;17.30;;;10.90;;
42294;SDS011;27947;47.556;18.718;2023-11-19T12:39:32;16.42;;;9.88;;
42294;SDS011;27947;47.556;18.718;2023-11-19T12:41:57;17.70;;;10.82;;
42294;SDS011;27947;47.556;18.718;2023-11-19T12:44:26;16.00;;;10.88;;
42294;SDS011;27947;47.556;18.718;2023-11-19T12:47:04;17.95;;;10.43;;
42294;SDS011;27947;47.556;18.718;2023-11-19T12:49:30;14.68;;;10.30;;
42294;SDS011;27947;47.556;18.718;2023-11-19T12:51:56;22.58;;;11.15;;
42294;SDS011;27947;47.556;18.718;2023-11-19T12:57:16;17.83;;;10.55;;
42294;SDS011;27947;47.556;18.718;2023-11-19T12:59:54;15.30;;;9.95;;
42294;SDS011;27947;47.556;18.718;2023-11-19T13:02:19;16.65;;;10.93;;
42294;SDS011;27947;47.556;18.718;2023-11-19T13:04:45;15.15;;;10.45;;
42294;SDS011;27947;47.556;18.718;2023-11-19T13:07:11;15.75;;;10.15;;
42294;SDS011;27947;47.556;18.718;2023-11-19T13:09:37;15.50;;;10.10;;
42294;SDS011;27947;47.556;18.718;2023-11-19T13:12:11;14.55;;;10.48;;
42294;SDS011;27947;47.556;18.718;2023-11-19T13:14:38;21.85;;;11.70;;
42294;SDS011;27947;47.556;18.718;2023-11-19T13:17:03;17.85;;;11.70;;
42294;SDS011;27947;47.556;18.718;2023-11-19T13:19:29;19.48;;;12.88;;
42294;SDS011;27947;47.556;18.718;2023-11-19T13:21:54;18.55;;;10.98;;
42294;SDS011;27947;47.556;18.718;2023-11-19T13:24:19;14.75;;;9.52;;
42294;SDS011;27947;47.556;18.718;2023-11-19T13:26:45;15.02;;;9.05;;
42294;SDS011;27947;47.556;18.718;2023-11-19T13:29:11;13.93;;;9.43;;
42294;SDS011;27947;47.556;18.718;2023-11-19T13:31:36;13.70;;;8.88;;
42294;SDS011;27947;47.556;18.718;2023-11-19T13:34:02;12.20;;;7.93;;
42294;SDS011;27947;47.556;18.718;2023-11-19T13:36:27;12.07;;;8.02;;
42294;SDS011;27947;47.556;18.718;2023-11-19T13:38:53;15.32;;;8.90;;
42294;SDS011;27947;47.556;18.718;2023-11-19T13:41:24;15.15;;;10.07;;
42294;SDS011;27947;47.556;18.718;2023-11-19T13:43:50;15.10;;;9.30;;
42294;SDS011;27947;47.556;18.718;2023-11-19T13:46:16;13.30;;;8.90;;
42294;SDS011;27947;47.556;18.718;2023-11-19T13:48:41;14.40;;;8.35;;
42294;SDS011;27947;47.556;18.718;2023-11-19T13:51:07;14.10;;;8.60;;
42294;SDS011;27947;47.556;18.718;2023-11-19T13:53:32;15.15;;;8.93;;
42294;SDS011;27947;47.556;18.718;2023-11-19T13:55:58;12.70;;;8.25;;
42294;SDS011;27947;47.556;18.718;2023-11-19T13:58:23;21.10;;;8.23;;
42294;SDS011;27947;47.556;18.718;2023-11-19T14:00:48;11.38;;;7.65;;
42294;SDS011;27947;47.556;18.718;2023-11-19T14:03:14;13.90;;;7.97;;
42294;SDS011;27947;47.556;18.718;2023-11-19T14:05:39;11.48;;;7.10;;
42294;SDS011;27947;47.556;18.718;2023-11-19T14:08:06;12.10;;;7.60;;
42294;SDS011;27947;47.556;18.718;2023-11-19T14:10:38;11.48;;;8.18;;
42294;SDS011;27947;47.556;18.718;2023-11-19T14:13:05;12.30;;;7.78;;
42294;SDS011;27947;47.556;18.718;2023-11-19T14:15:30;14.60;;;7.97;;
42294;SDS011;27947;47.556;18.718;2023-11-19T14:17:56;15.15;;;8.52;;
42294;SDS011;27947;47.556;18.718;2023-11-19T14:20:21;16.00;;;8.27;;
42294;SDS011;27947;47.556;18.718;2023-11-19T14:22:46;13.45;;;8.70;;
42294;SDS011;27947;47.556;18.718;2023-11-19T14:25:14;13.85;;;9.10;;
42294;SDS011;27947;47.556;18.718;2023-11-19T14:27:40;15.18;;;9.20;;
42294;SDS011;27947;47.556;18.718;2023-11-19T14:30:05;17.17;;;10.88;;